Time;durP1;ratioP1;P1;durP2;ratioP2;P2;SDS_P1;SDS_P2;PMS_P1;PMS_P2;Temp;Humidity;BMP_temperature;BMP_pressure;BME280_temperature;BME280_humidity;BME280_pressure;Samples;Min_cycle;Max_cycle;Signal;HPM_P1;HPM_P2
2020/12/03 13:03:31;;;;;;;21.57;14.37;;;;;;;5.18;66.02;97750.56;5209007;22;20543;-76
2020/12/03 13:05:59;;;;;;;23.60;15.63;;;;;;;5.56;64.44;97750.09;5078625;28;39925;-77
2020/12/03 13:08:27;;;;;;;18.30;13.77;;;;;;;5.83;62.38;97758.91;5063866;28;42604;-76
2020/12/03 13:10:55;;;;;;;20.87;14.57;;;;;;;5.97;61.19;97760.72;5083982;28;42480;-76
2020/12/03 13:13:28;;;;;;;23.23;13.97;;;;;;;6.18;60.31;97766.44;5084486;28;42681;-77
2020/12/03 13:15:55;;;;;;;20.07;13.50;;;;;;;6.25;59.98;97763.34;5151961;22;39808;-78
2020/12/03 13:18:22;;;;;;;19.57;14.60;;;;;;;6.35;58.85;97774.09;5063984;28;42316;-77
2020/12/03 13:20:50;;;;;;;21.40;13.50;;;;;;;6.45;59.23;97769.94;5061571;28;42598;-77
2020/12/03 13:23:17;;;;;;;17.73;12.23;;;;;;;6.40;58.52;97761.53;5051514;28;42147;-77
2020/12/03 13:25:47;;;;;;;18.20;13.27;;;;;;;6.48;57.94;97762.72;5131411;22;40193;31
2020/12/03 13:28:15;;;;;;;20.17;13.83;;;;;;;6.54;58.88;97750.13;5084551;28;42740;-77
2020/12/03 13:30:42;;;;;;;17.93;12.80;;;;;;;6.59;58.80;97748.88;5104077;27;42698;-76
2020/12/03 13:33:09;;;;;;;19.03;13.17;;;;;;;6.54;58.79;97735.19;5104798;28;43229;-77
2020/12/03 13:35:36;;;;;;;19.83;13.37;;;;;;;6.53;58.24;97730.88;5086975;28;40403;-76
2020/12/03 13:38:04;;;;;;;16.70;12.50;;;;;;;6.49;57.63;97745.16;5169564;22;42216;-77
2020/12/03 13:40:31;;;;;;;19.87;13.00;;;;;;;6.38;57.92;97723.97;5066314;28;44319;-76
2020/12/03 13:42:58;;;;;;;17.17;12.77;;;;;;;6.30;57.33;97721.84;5083169;28;42881;-76
2020/12/03 13:45:25;;;;;;;17.77;12.07;;;;;;;6.26;57.21;97722.97;5084410;28;41175;-76
2020/12/03 13:47:52;;;;;;;17.03;12.00;;;;;;;6.09;57.33;97697.72;5083740;28;41844;-76
2020/12/03 13:50:19;;;;;;;14.63;11.27;;;;;;;6.01;57.24;97704.41;5168046;22;45284;-75
2020/12/03 13:52:46;;;;;;;18.63;12.93;;;;;;;6.09;57.84;97705.63;5086178;28;43097;-76
2020/12/03 13:55:14;;;;;;;16.63;11.97;;;;;;;5.94;58.23;97680.28;5103726;27;40922;-76
2020/12/03 13:57:41;;;;;;;16.50;11.97;;;;;;;6.02;58.47;97688.56;5103410;28;41483;-76
2020/12/03 14:00:10;;;;;;;19.60;14.57;;;;;;;6.01;58.18;97673.72;5103626;28;43541;-77
2020/12/03 14:02:39;;;;;;;17.37;12.10;;;;;;;5.79;57.63;97683.84;5191231;22;43667;-77
2020/12/03 14:05:07;;;;;;;19.40;12.83;;;;;;;5.78;58.12;97676.91;5099955;28;39980;-77
2020/12/03 14:07:34;;;;;;;17.87;14.10;;;;;;;5.69;57.90;97688.81;5085004;28;44616;-76
2020/12/03 14:10:01;;;;;;;18.53;12.63;;;;;;;5.58;58.74;97675.50;5086682;28;43301;-77
2020/12/03 14:12:29;;;;;;;18.37;13.10;;;;;;;5.35;58.81;97642.78;5207316;22;42952;-77
2020/12/03 14:14:56;;;;;;;17.07;13.47;;;;;;;5.41;59.00;97662.56;5068550;28;38211;-77
2020/12/03 14:17:23;;;;;;;16.23;11.57;;;;;;;5.36;59.46;97660.22;5071172;28;42255;-76
2020/12/03 14:19:50;;;;;;;19.40;12.90;;;;;;;5.40;59.90;97653.00;5071441;28;43630;-76
2020/12/03 14:22:20;;;;;;;21.67;14.53;;;;;;;5.31;59.70;97641.28;5068976;28;42216;-77
2020/12/03 14:24:47;;;;;;;22.23;14.07;;;;;;;5.24;59.77;97639.97;5159483;22;40942;-77
2020/12/03 14:27:14;;;;;;;16.87;12.67;;;;;;;5.18;60.29;97640.34;5051898;28;42990;-77
2020/12/03 14:29:43;;;;;;;16.17;12.50;;;;;;;5.20;60.36;97632.34;5073689;28;43421;-77
2020/12/03 14:32:10;;;;;;;19.50;13.77;;;;;;;5.07;59.88;97619.13;5036127;28;43242;-77
2020/12/03 14:34:37;;;;;;;18.70;13.60;;;;;;;5.04;60.67;97621.97;5068633;28;39954;-77
2020/12/03 14:37:04;;;;;;;17.63;13.43;;;;;;;5.02;60.36;97623.81;5156722;22;41335;-77
2020/12/03 14:39:32;;;;;;;20.23;13.93;;;;;;;4.93;61.04;97613.88;5071325;28;44972;-77
2020/12/03 14:41:59;;;;;;;22.10;14.27;;;;;;;4.75;61.08;97612.34;5088507;28;43184;-76
2020/12/03 14:44:26;;;;;;;20.87;14.73;;;;;;;4.75;61.24;97609.72;5088526;28;39877;-76
2020/12/03 14:46:55;;;;;;;22.27;14.97;;;;;;;4.72;61.26;97604.66;5089036;28;41586;-77
2020/12/03 14:49:22;;;;;;;23.87;16.17;;;;;;;4.54;61.97;97591.72;5177973;22;43359;-76
2020/12/03 14:51:53;;;;;;;21.47;14.83;;;;;;;4.64;62.33;97605.97;5109334;28;42171;-76
2020/12/03 14:54:20;;;;;;;21.90;15.60;;;;;;;4.54;62.51;97602.19;5110742;27;39916;-76
2020/12/03 14:56:47;;;;;;;27.50;16.97;;;;;;;4.36;62.84;97579.66;5103502;28;42372;-76
2020/12/03 14:59:15;;;;;;;26.67;17.20;;;;;;;4.38;62.83;97593.53;5175732;22;42464;-76
2020/12/03 15:01:42;;;;;;;26.93;16.70;;;;;;;4.28;63.21;97584.50;5069848;28;42092;-77
2020/12/03 15:04:10;;;;;;;24.50;16.70;;;;;;;4.12;63.68;97574.06;5068358;28;40714;-77
2020/12/03 15:06:38;;;;;;;26.40;17.90;;;;;;;4.15;63.95;97586.13;5071442;28;41573;-76
2020/12/03 15:09:06;;;;;;;29.57;18.00;;;;;;;4.06;64.20;97581.44;5072404;28;43263;-76
2020/12/03 15:11:36;;;;;;;25.37;16.93;;;;;;;4.05;64.11;97580.59;5167248;22;42141;-76
2020/12/03 15:14:03;;;;;;;28.07;17.27;;;;;;;4.04;64.66;97565.78;5090173;28;40681;-76
2020/12/03 15:16:31;;;;;;;27.50;18.40;;;;;;;4.00;64.39;97563.44;5088619;28;41953;-76
2020/12/03 15:18:58;;;;;;;30.50;18.50;;;;;;;3.83;64.78;97539.03;5088409;28;42647;-76
2020/12/03 15:21:26;;;;;;;25.63;16.90;;;;;;;3.85;65.20;97545.03;5089696;28;42877;-76
2020/12/03 15:23:53;;;;;;;28.27;18.20;;;;;;;3.89;65.26;97546.56;5156876;22;40868;-78
2020/12/03 15:26:20;;;;;;;26.27;16.50;;;;;;;3.84;65.38;97543.34;5066995;28;41511;-76
2020/12/03 15:28:47;;;;;;;27.77;18.00;;;;;;;3.76;65.36;97535.06;5050099;28;44051;-77
2020/12/03 15:31:14;;;;;;;29.77;18.43;;;;;;;3.76;65.36;97529.84;5047519;28;42145;-76
2020/12/03 15:36:53;;;;;;;29.37;18.63;;;;;;;3.66;65.63;97507.75;5007555;28;41093;-76
2020/12/03 15:39:22;;;;;;;27.73;18.87;;;;;;;3.61;65.69;97507.13;5024589;28;42742;-77
2020/12/03 15:42:00;;;;;;;30.40;18.50;;;;;;;3.42;66.01;97493.41;5007243;28;42208;-78
